createdAt,value
2019-04-30T00:02:11.130Z,95.80
2019-04-30T00:04:42.908Z,95.70
2019-04-30T00:07:15.509Z,95.30
2019-04-30T00:09:45.013Z,95.20
2019-04-30T00:12:15.707Z,95.20
2019-04-30T00:14:45.980Z,95.30
2019-04-30T00:17:19.641Z,95.20
2019-04-30T00:19:50.448Z,95.40
2019-04-30T00:22:30.986Z,95.90
2019-04-30T00:24:51.783Z,96.20
2019-04-30T00:27:28.320Z,96.50
2019-04-30T00:29:55.677Z,97.00
2019-04-30T00:32:25.902Z,97.20
2019-04-30T00:34:57.722Z,97.30
2019-04-30T00:37:27.968Z,97.30
2019-04-30T00:39:58.129Z,97.50
2019-04-30T00:42:28.901Z,97.80
2019-04-30T00:45:04.119Z,98.30
2019-04-30T00:47:31.737Z,98.20
2019-04-30T00:50:02.021Z,98.30
2019-04-30T00:52:33.812Z,98.60
2019-04-30T00:55:05.554Z,98.50
2019-04-30T00:57:38.106Z,98.70
2019-04-30T01:00:11.871Z,98.80
2019-04-30T01:02:52.345Z,98.70
2019-04-30T01:05:25.476Z,98.60
2019-04-30T01:07:55.340Z,98.50
2019-04-30T01:10:28.343Z,98.70
2019-04-30T01:12:59.773Z,98.90
2019-04-30T01:15:29.296Z,99.00
2019-04-30T01:17:59.482Z,98.90
2019-04-30T01:20:32.923Z,99.40
2019-04-30T01:23:07.381Z,99.30
2019-04-30T01:25:35.129Z,99.50
2019-04-30T01:28:05.305Z,99.50
2019-04-30T01:30:35.527Z,99.60
2019-04-30T01:33:05.688Z,99.70
2019-04-30T01:35:35.929Z,99.90
2019-04-30T01:38:11.151Z,99.90
2019-04-30T01:40:42.854Z,99.90
2019-04-30T01:43:11.800Z,99.90
2019-04-30T01:45:42.137Z,99.70
2019-04-30T01:48:12.850Z,99.90
2019-04-30T01:50:43.151Z,99.90
2019-04-30T01:53:13.433Z,99.90
2019-04-30T01:55:45.259Z,99.90
2019-04-30T01:58:30.110Z,99.90
2019-04-30T02:01:10.848Z,99.90
2019-04-30T02:03:41.098Z,99.90
2019-04-30T02:06:11.567Z,99.90
2019-04-30T02:08:41.854Z,99.90
2019-04-30T02:11:12.003Z,99.90
2019-04-30T02:13:42.158Z,99.90
2019-04-30T02:16:12.407Z,99.90
2019-04-30T02:18:42.544Z,99.90
2019-04-30T02:21:12.705Z,99.90
2019-04-30T02:23:42.863Z,99.90
2019-04-30T02:26:13.171Z,99.90
2019-04-30T02:28:43.359Z,99.90
2019-04-30T02:31:13.391Z,99.90
2019-04-30T02:33:45.196Z,99.90
2019-04-30T02:36:19.905Z,99.90
2019-04-30T02:38:51.836Z,99.90
2019-04-30T02:41:23.588Z,99.90
2019-04-30T02:43:56.094Z,99.90
2019-04-30T02:46:31.988Z,99.90
2019-04-30T02:49:01.199Z,99.90
2019-04-30T02:51:33.344Z,99.90
2019-04-30T02:54:12.366Z,99.90
2019-04-30T02:56:44.189Z,99.90
2019-04-30T02:59:14.353Z,99.90
2019-04-30T03:01:44.582Z,99.90
2019-04-30T03:04:14.750Z,99.90
2019-04-30T03:06:45.893Z,99.90
2019-04-30T03:09:15.978Z,99.90
2019-04-30T03:11:46.210Z,99.90
2019-04-30T03:14:16.239Z,99.90
2019-04-30T03:16:52.741Z,99.90
2019-04-30T03:19:23.938Z,99.90
2019-04-30T03:21:55.753Z,99.90
2019-04-30T03:24:25.796Z,99.90
2019-04-30T03:26:59.231Z,99.90
2019-04-30T03:29:30.290Z,99.90
2019-04-30T03:32:02.825Z,99.90
2019-04-30T03:34:33.166Z,99.90
2019-04-30T03:37:03.584Z,99.90
2019-04-30T03:39:34.270Z,99.90
2019-04-30T03:42:04.528Z,99.90
2019-04-30T03:44:34.772Z,99.90
2019-04-30T03:47:04.978Z,99.90
2019-04-30T03:49:35.062Z,99.90
2019-04-30T03:52:05.289Z,99.90
2019-04-30T03:54:35.389Z,99.90
2019-04-30T03:57:05.546Z,99.90
2019-04-30T03:59:35.790Z,99.90
2019-04-30T04:02:12.226Z,99.90
2019-04-30T04:04:40.968Z,99.90
2019-04-30T04:07:12.749Z,99.90
2019-04-30T04:09:50.130Z,99.90
2019-04-30T04:12:30.336Z,99.90
2019-04-30T04:15:03.798Z,99.90
2019-04-30T04:17:33.178Z,99.90
2019-04-30T04:20:03.402Z,99.90
2019-04-30T04:22:33.486Z,99.90
2019-04-30T04:25:03.734Z,99.90
2019-04-30T04:27:34.019Z,99.90
2019-04-30T04:30:06.617Z,99.90
2019-04-30T04:32:36.777Z,99.90
2019-04-30T04:35:09.907Z,99.90
2019-04-30T04:37:39.618Z,99.90
2019-04-30T04:40:09.975Z,99.90
2019-04-30T04:42:40.144Z,99.90
2019-04-30T04:45:11.267Z,99.90
2019-04-30T04:47:41.450Z,99.90
2019-04-30T04:50:12.971Z,99.90
2019-04-30T04:52:43.062Z,99.90
2019-04-30T04:55:14.279Z,99.90
2019-04-30T04:57:44.295Z,99.90
2019-04-30T05:00:14.658Z,99.90
2019-04-30T05:02:46.450Z,99.90
2019-04-30T05:05:16.679Z,99.90
2019-04-30T05:07:48.613Z,99.90
2019-04-30T05:10:19.307Z,99.90
2019-04-30T05:12:51.073Z,99.90
2019-04-30T05:15:21.316Z,99.90
2019-04-30T05:17:51.579Z,99.90
2019-04-30T05:20:21.736Z,99.90
2019-04-30T05:22:51.735Z,99.90
2019-04-30T05:25:21.973Z,99.90
2019-04-30T05:27:52.048Z,99.90
2019-04-30T05:30:22.358Z,99.90
2019-04-30T05:32:52.519Z,99.90
2019-04-30T05:35:22.763Z,99.90
2019-04-30T05:37:52.905Z,99.30
2019-04-30T05:40:23.079Z,98.70
2019-04-30T05:42:53.236Z,98.10
2019-04-30T05:45:23.498Z,97.90
2019-04-30T05:47:53.729Z,97.10
2019-04-30T05:50:24.100Z,96.50
2019-04-30T05:52:54.210Z,95.30
2019-04-30T05:55:24.356Z,94.80
2019-04-30T05:57:56.556Z,95.50
2019-04-30T06:00:30.284Z,95.10
2019-04-30T06:02:59.457Z,95.80
2019-04-30T06:05:29.685Z,96.30
2019-04-30T06:07:59.867Z,96.90
2019-04-30T06:10:39.532Z,96.00
2019-04-30T06:13:19.525Z,96.90
2019-04-30T06:15:51.397Z,95.70
2019-04-30T06:18:21.645Z,96.10
2019-04-30T06:20:51.882Z,95.30
2019-04-30T06:23:22.204Z,94.50
2019-04-30T06:25:59.437Z,94.10
2019-04-30T06:28:24.789Z,94.00
2019-04-30T06:30:55.384Z,93.50
2019-04-30T06:33:25.565Z,94.40
2019-04-30T06:35:58.898Z,94.00
2019-04-30T06:38:29.185Z,93.80
2019-04-30T06:40:59.442Z,93.90
2019-04-30T06:43:29.757Z,92.70
2019-04-30T06:46:00.069Z,92.20
2019-04-30T06:48:31.440Z,92.20
2019-04-30T06:51:01.617Z,91.00
2019-04-30T06:53:31.838Z,88.30
2019-04-30T06:56:02.007Z,86.80
2019-04-30T06:58:32.149Z,87.70
2019-04-30T07:01:02.255Z,85.80
2019-04-30T07:03:32.400Z,86.40
2019-04-30T07:06:02.426Z,85.60
2019-04-30T07:08:46.775Z,84.20
2019-04-30T07:11:29.284Z,86.50
2019-04-30T07:13:59.967Z,85.40
2019-04-30T07:16:30.135Z,85.50
2019-04-30T07:19:00.276Z,82.70
2019-04-30T07:21:31.712Z,80.40
2019-04-30T07:24:03.114Z,79.50
2019-04-30T07:26:33.355Z,79.50
2019-04-30T07:29:03.573Z,78.20
2019-04-30T07:31:33.882Z,78.20
2019-04-30T07:34:04.258Z,78.20
2019-04-30T07:36:45.291Z,78.10
2019-04-30T07:39:10.005Z,75.80
2019-04-30T07:41:40.246Z,75.10
2019-04-30T07:44:12.962Z,76.80
2019-04-30T07:46:45.321Z,78.90
2019-04-30T07:49:14.211Z,76.50
2019-04-30T07:51:44.924Z,77.30
2019-04-30T07:54:15.585Z,74.70
2019-04-30T07:56:45.771Z,74.60
2019-04-30T07:59:15.956Z,75.10
2019-04-30T08:02:03.706Z,76.50
2019-04-30T08:04:35.527Z,80.20
2019-04-30T08:07:06.938Z,74.10
2019-04-30T08:09:41.873Z,71.40
2019-04-30T08:12:10.454Z,71.50
2019-04-30T08:14:41.209Z,70.90
2019-04-30T08:17:11.414Z,70.70
2019-04-30T08:19:41.627Z,67.10
2019-04-30T08:22:11.913Z,63.00
2019-04-30T08:24:41.995Z,67.20
2019-04-30T08:27:12.892Z,62.50
2019-04-30T08:29:43.135Z,61.50
2019-04-30T08:32:13.292Z,59.20
2019-04-30T08:34:43.304Z,59.60
2019-04-30T08:37:17.577Z,60.90
2019-04-30T08:39:45.557Z,59.70
2019-04-30T08:42:28.220Z,62.80
2019-04-30T08:44:48.548Z,59.40
2019-04-30T08:47:21.192Z,57.40
2019-04-30T08:49:51.558Z,58.20
2019-04-30T08:52:21.754Z,56.60
2019-04-30T08:54:51.904Z,55.00
2019-04-30T08:57:22.126Z,58.10
2019-04-30T08:59:52.269Z,57.30
2019-04-30T09:02:22.575Z,57.90
2019-04-30T09:04:54.375Z,59.20
2019-04-30T09:07:24.524Z,54.20
2019-04-30T09:09:54.688Z,54.50
2019-04-30T09:12:24.942Z,53.60
2019-04-30T09:14:55.230Z,53.30
2019-04-30T09:17:25.522Z,50.10
2019-04-30T09:19:55.683Z,50.20
2019-04-30T09:22:25.841Z,50.10
2019-04-30T09:24:55.913Z,49.40
2019-04-30T09:27:26.073Z,48.80
2019-04-30T09:29:56.216Z,52.90
2019-04-30T09:32:26.447Z,54.70
2019-04-30T09:34:58.610Z,53.00
2019-04-30T09:37:28.310Z,54.70
2019-04-30T09:39:59.221Z,53.80
2019-04-30T09:42:29.651Z,56.90
2019-04-30T09:44:59.907Z,52.20
2019-04-30T09:47:30.073Z,51.90
2019-04-30T09:50:00.256Z,46.70
2019-04-30T09:52:31.195Z,49.40
2019-04-30T09:55:02.028Z,54.20
2019-04-30T09:57:32.461Z,53.20
2019-04-30T10:00:02.835Z,51.80
2019-04-30T10:02:34.150Z,52.60
2019-04-30T10:05:07.841Z,56.10
2019-04-30T10:07:40.028Z,57.40
2019-04-30T10:10:12.104Z,54.90
2019-04-30T10:12:42.260Z,54.70
2019-04-30T10:15:14.253Z,53.80
2019-04-30T10:17:46.129Z,54.50
2019-04-30T10:20:16.567Z,54.70
2019-04-30T10:22:46.853Z,53.40
2019-04-30T10:25:17.089Z,53.90
2019-04-30T10:27:47.331Z,52.80
2019-04-30T10:30:20.432Z,54.60
2019-04-30T10:32:50.581Z,55.10
2019-04-30T10:35:20.652Z,53.10
2019-04-30T10:37:50.896Z,57.70
2019-04-30T10:40:21.062Z,54.40
2019-04-30T10:42:51.308Z,53.50
2019-04-30T10:45:21.668Z,50.00
2019-04-30T10:47:52.095Z,50.60
2019-04-30T10:50:24.072Z,55.50
2019-04-30T10:52:54.313Z,48.30
2019-04-30T10:55:24.649Z,38.90
2019-04-30T10:57:54.877Z,46.40
2019-04-30T11:00:36.240Z,39.10
2019-04-30T11:03:17.219Z,39.70
2019-04-30T11:05:41.036Z,43.20
2019-04-30T11:08:10.859Z,45.30
2019-04-30T11:10:40.954Z,44.30
2019-04-30T11:13:11.183Z,47.20
2019-04-30T11:15:41.400Z,46.20
2019-04-30T11:18:11.629Z,43.10
2019-04-30T11:20:41.864Z,45.10
2019-04-30T11:23:14.679Z,44.40
2019-04-30T11:25:45.520Z,46.20
2019-04-30T11:28:16.725Z,41.90
2019-04-30T11:30:49.220Z,40.90
2019-04-30T11:33:19.654Z,47.70
2019-04-30T11:36:01.690Z,42.40
2019-04-30T11:38:21.774Z,40.70
2019-04-30T11:40:51.932Z,39.30
2019-04-30T11:43:22.089Z,42.80
2019-04-30T11:45:55.255Z,46.10
2019-04-30T11:48:25.428Z,45.80
2019-04-30T11:50:55.654Z,53.20
2019-04-30T11:53:28.803Z,52.60
2019-04-30T11:55:59.191Z,49.00
2019-04-30T11:58:30.558Z,50.10
2019-04-30T12:01:01.048Z,49.70
2019-04-30T12:03:31.310Z,52.10
2019-04-30T12:06:01.473Z,50.40
2019-04-30T12:08:33.346Z,52.20
2019-04-30T12:11:05.058Z,47.60
2019-04-30T12:13:35.214Z,50.20
2019-04-30T12:16:05.535Z,49.10
2019-04-30T12:18:35.628Z,48.20
2019-04-30T12:21:05.928Z,50.90
2019-04-30T12:23:36.080Z,46.20
2019-04-30T12:26:06.277Z,50.10
2019-04-30T12:28:36.433Z,52.40
2019-04-30T12:31:06.707Z,52.80
2019-04-30T12:33:36.974Z,52.90
2019-04-30T12:36:09.013Z,50.10
2019-04-30T12:38:39.280Z,49.60
2019-04-30T12:41:09.546Z,52.20
2019-04-30T12:43:39.773Z,49.70
2019-04-30T12:46:10.018Z,47.90
2019-04-30T12:48:41.819Z,49.20
2019-04-30T12:51:16.272Z,46.20
2019-04-30T12:53:50.627Z,48.50
2019-04-30T12:56:31.060Z,48.10
2019-04-30T12:59:01.275Z,42.90
2019-04-30T13:01:32.169Z,46.20
2019-04-30T13:04:03.472Z,46.80
2019-04-30T13:06:34.218Z,48.60
2019-04-30T13:09:10.092Z,46.10
2019-04-30T13:11:40.594Z,45.90
2019-04-30T13:14:12.172Z,47.10
2019-04-30T13:16:42.787Z,43.40
2019-04-30T13:19:13.043Z,49.50
2019-04-30T13:21:43.327Z,47.70
2019-04-30T13:24:13.602Z,47.10
2019-04-30T13:26:43.761Z,44.70
2019-04-30T13:29:16.495Z,45.70
2019-04-30T13:31:50.143Z,47.10
2019-04-30T13:34:25.924Z,40.30
2019-04-30T13:36:56.105Z,43.20
2019-04-30T13:39:50.634Z,42.50
2019-04-30T13:42:22.037Z,45.70
2019-04-30T13:44:52.118Z,44.50
2019-04-30T13:47:22.371Z,44.10
2019-04-30T13:49:52.403Z,49.10
2019-04-30T13:52:22.493Z,44.70
2019-04-30T13:54:52.788Z,43.40
2019-04-30T13:57:23.037Z,44.80
2019-04-30T13:59:53.341Z,43.80
2019-04-30T14:02:23.500Z,46.40
2019-04-30T14:05:04.250Z,46.40
2019-04-30T14:07:41.901Z,47.50
2019-04-30T14:10:12.425Z,48.40
2019-04-30T14:12:47.222Z,45.30
2019-04-30T14:15:19.214Z,44.10
2019-04-30T14:17:49.517Z,45.20
2019-04-30T14:20:23.560Z,42.80
2019-04-30T14:22:53.800Z,44.90
2019-04-30T14:25:23.911Z,43.50
2019-04-30T14:27:54.932Z,40.50
2019-04-30T14:30:26.258Z,43.10
2019-04-30T14:32:56.486Z,45.20
2019-04-30T14:35:28.565Z,45.20
2019-04-30T14:37:59.610Z,45.00
2019-04-30T14:40:30.720Z,44.70
2019-04-30T14:43:02.980Z,45.40
2019-04-30T14:45:44.058Z,45.50
2019-04-30T14:48:23.783Z,44.80
2019-04-30T14:50:53.811Z,46.80
2019-04-30T14:53:39.033Z,44.10
2019-04-30T14:56:11.676Z,45.20
2019-04-30T14:58:55.462Z,47.20
2019-04-30T15:01:29.204Z,45.60
2019-04-30T15:03:59.490Z,44.90
2019-04-30T15:06:29.635Z,46.70
2019-04-30T15:08:59.875Z,45.60
2019-04-30T15:11:29.983Z,46.50
2019-04-30T15:14:00.212Z,47.40
2019-04-30T15:16:30.437Z,47.50
2019-04-30T15:19:01.689Z,48.10
2019-04-30T15:21:31.773Z,49.30
2019-04-30T15:24:06.347Z,46.40
2019-04-30T15:26:39.266Z,47.00
2019-04-30T15:29:12.704Z,44.90
2019-04-30T15:31:42.552Z,43.90
2019-04-30T15:34:13.421Z,45.50
2019-04-30T15:36:43.657Z,45.80
2019-04-30T15:39:18.236Z,46.20
2019-04-30T15:41:48.492Z,44.40
2019-04-30T15:44:19.782Z,43.00
2019-04-30T15:46:50.004Z,42.50
2019-04-30T15:49:20.299Z,40.40
2019-04-30T15:51:50.534Z,42.50
2019-04-30T15:54:20.966Z,41.50
2019-04-30T15:56:51.385Z,43.60
2019-04-30T15:59:23.243Z,44.50
2019-04-30T16:02:10.082Z,45.20
2019-04-30T16:04:50.902Z,43.30
2019-04-30T16:07:21.199Z,45.50
2019-04-30T16:10:09.133Z,42.40
2019-04-30T16:12:58.735Z,42.90
2019-04-30T16:15:29.792Z,43.90
2019-04-30T16:18:01.596Z,41.10
2019-04-30T16:20:31.769Z,36.90
2019-04-30T16:23:01.836Z,37.30
2019-04-30T16:25:32.020Z,38.10
2019-04-30T16:28:02.323Z,37.70
2019-04-30T16:30:32.577Z,36.70
2019-04-30T16:33:02.739Z,34.40
2019-04-30T16:35:33.020Z,32.20
2019-04-30T16:38:03.276Z,32.90
2019-04-30T16:40:33.553Z,33.60
2019-04-30T16:43:03.669Z,41.60
2019-04-30T16:45:35.383Z,47.10
2019-04-30T16:48:05.565Z,49.60
2019-04-30T16:50:35.735Z,49.50
2019-04-30T16:53:06.974Z,49.40
2019-04-30T16:55:37.203Z,50.40
2019-04-30T16:58:08.920Z,51.30
2019-04-30T17:00:40.254Z,52.20
2019-04-30T17:03:12.245Z,52.40
2019-04-30T17:05:46.660Z,54.00
2019-04-30T17:08:33.464Z,57.00
2019-04-30T17:11:05.281Z,54.20
2019-04-30T17:13:39.620Z,55.90
2019-04-30T17:16:11.487Z,54.60
2019-04-30T17:18:41.987Z,55.30
2019-04-30T17:21:13.110Z,56.00
2019-04-30T17:23:43.305Z,57.90
2019-04-30T17:26:13.603Z,58.80
2019-04-30T17:28:44.760Z,59.20
2019-04-30T17:31:15.014Z,60.80
2019-04-30T17:33:45.252Z,60.60
2019-04-30T17:36:15.412Z,62.10
2019-04-30T17:38:45.592Z,62.40
2019-04-30T17:41:15.891Z,62.70
2019-04-30T17:43:45.980Z,63.30
2019-04-30T17:46:16.158Z,64.30
2019-04-30T17:48:46.380Z,64.80
2019-04-30T17:51:16.740Z,65.90
2019-04-30T17:54:04.258Z,66.10
2019-04-30T17:56:34.504Z,67.50
2019-04-30T17:59:04.742Z,68.30
2019-04-30T18:01:35.246Z,68.60
2019-04-30T18:04:05.415Z,67.80
2019-04-30T18:06:35.652Z,67.60
2019-04-30T18:09:10.757Z,68.30
2019-04-30T18:11:40.634Z,68.20
2019-04-30T18:14:10.903Z,67.40
2019-04-30T18:16:41.147Z,67.30
2019-04-30T18:19:12.951Z,66.80
2019-04-30T18:21:56.878Z,67.90
2019-04-30T18:24:31.639Z,69.10
2019-04-30T18:27:03.440Z,69.40
2019-04-30T18:29:33.736Z,69.50
2019-04-30T18:32:04.021Z,70.00
2019-04-30T18:34:34.279Z,69.60
2019-04-30T18:37:04.592Z,70.00
2019-04-30T18:39:34.842Z,70.40
2019-04-30T18:42:05.005Z,71.40
2019-04-30T18:44:35.311Z,72.70
2019-04-30T18:47:05.696Z,74.20
2019-04-30T18:49:35.908Z,73.70
2019-04-30T18:52:06.154Z,73.70
2019-04-30T18:54:36.385Z,74.10
2019-04-30T18:57:06.550Z,74.50
2019-04-30T18:59:36.623Z,74.70
2019-04-30T19:02:08.480Z,75.50
2019-04-30T19:04:40.898Z,76.30
2019-04-30T19:07:24.643Z,76.70
2019-04-30T19:09:56.473Z,77.30
2019-04-30T19:12:29.111Z,77.40
2019-04-30T19:15:00.964Z,77.70
2019-04-30T19:17:39.391Z,78.80
2019-04-30T19:20:11.403Z,78.40
2019-04-30T19:22:41.622Z,79.10
2019-04-30T19:25:12.955Z,78.90
2019-04-30T19:27:43.108Z,79.40
2019-04-30T19:30:13.517Z,79.10
2019-04-30T19:32:43.767Z,78.60
2019-04-30T19:35:14.048Z,78.20
2019-04-30T19:37:44.220Z,77.70
2019-04-30T19:40:14.465Z,76.80
2019-04-30T19:42:44.760Z,76.70
2019-04-30T19:45:15.096Z,76.80
2019-04-30T19:47:45.507Z,76.70
2019-04-30T19:50:15.831Z,76.70
2019-04-30T19:52:45.924Z,76.80
2019-04-30T19:55:16.097Z,77.20
2019-04-30T19:57:46.296Z,77.40
2019-04-30T20:00:16.723Z,77.80
2019-04-30T20:02:48.731Z,77.70
2019-04-30T20:05:19.491Z,78.00
2019-04-30T20:07:49.756Z,78.00
2019-04-30T20:10:19.918Z,78.50
2019-04-30T20:12:50.380Z,78.90
2019-04-30T20:15:24.360Z,79.30
2019-04-30T20:17:52.326Z,79.70
2019-04-30T20:20:22.475Z,80.40
2019-04-30T20:22:52.639Z,81.00
2019-04-30T20:25:22.812Z,81.20
2019-04-30T20:27:52.956Z,81.80
2019-04-30T20:30:23.285Z,81.60
2019-04-30T20:32:53.507Z,81.90
2019-04-30T20:35:25.155Z,82.60
2019-04-30T20:38:12.979Z,83.40
2019-04-30T20:40:51.507Z,83.20
2019-04-30T20:43:15.520Z,85.50
2019-04-30T20:45:45.754Z,85.20
2019-04-30T20:48:15.900Z,84.90
2019-04-30T20:50:46.128Z,84.20
2019-04-30T20:53:16.133Z,84.10
2019-04-30T20:55:46.382Z,84.50
2019-04-30T20:58:17.533Z,83.40
2019-04-30T21:01:00.537Z,82.90
2019-04-30T21:03:19.955Z,83.10
2019-04-30T21:05:50.113Z,82.60
2019-04-30T21:08:20.264Z,82.20
2019-04-30T21:10:50.558Z,82.00
2019-04-30T21:13:20.714Z,82.20
2019-04-30T21:15:50.954Z,81.40
2019-04-30T21:18:21.189Z,80.60
2019-04-30T21:20:51.441Z,80.90
2019-04-30T21:23:21.612Z,81.50
2019-04-30T21:25:51.763Z,82.40
2019-04-30T21:28:21.916Z,82.10
2019-04-30T21:30:52.202Z,82.90
2019-04-30T21:33:27.013Z,83.50
2019-04-30T21:36:04.755Z,83.20
2019-04-30T21:38:34.856Z,82.60
2019-04-30T21:41:05.157Z,82.60
2019-04-30T21:43:35.256Z,82.30
2019-04-30T21:46:06.565Z,83.30
2019-04-30T21:48:38.479Z,83.00
2019-04-30T21:51:09.389Z,84.00
2019-04-30T21:53:39.847Z,83.10
2019-04-30T21:56:09.953Z,83.70
2019-04-30T21:58:40.054Z,84.20
2019-04-30T22:01:14.120Z,83.60
2019-04-30T22:03:46.393Z,83.30
2019-04-30T22:06:16.609Z,84.30
2019-04-30T22:08:48.528Z,83.90
2019-04-30T22:11:19.783Z,83.30
2019-04-30T22:13:50.164Z,83.50
2019-04-30T22:16:21.386Z,82.60
2019-04-30T22:18:51.625Z,83.00
2019-04-30T22:21:21.856Z,83.20
2019-04-30T22:23:52.013Z,82.50
2019-04-30T22:26:22.182Z,81.90
2019-04-30T22:28:52.358Z,81.90
2019-04-30T22:31:22.590Z,82.00
2019-04-30T22:33:52.800Z,81.30
2019-04-30T22:36:28.942Z,82.60
2019-04-30T22:39:11.951Z,83.00
2019-04-30T22:41:41.366Z,83.10
2019-04-30T22:44:11.592Z,85.40
2019-04-30T22:46:42.758Z,84.30
2019-04-30T22:49:12.899Z,84.60
2019-04-30T22:51:43.001Z,85.70
2019-04-30T22:54:13.083Z,84.80
2019-04-30T22:56:43.256Z,84.20
2019-04-30T22:59:14.403Z,85.30
2019-04-30T23:01:57.743Z,85.40
2019-04-30T23:04:35.234Z,86.20
2019-04-30T23:07:05.962Z,86.40
2019-04-30T23:09:36.190Z,86.00
2019-04-30T23:12:06.436Z,86.50
2019-04-30T23:14:36.695Z,85.60
2019-04-30T23:17:07.603Z,85.40
2019-04-30T23:19:37.791Z,85.40
2019-04-30T23:22:08.109Z,85.40
2019-04-30T23:24:38.114Z,85.50
2019-04-30T23:27:08.354Z,85.30
2019-04-30T23:29:38.495Z,85.10
2019-04-30T23:32:09.021Z,85.10
2019-04-30T23:34:39.155Z,84.90
2019-04-30T23:37:09.322Z,85.20
2019-04-30T23:39:39.627Z,85.50
2019-04-30T23:42:09.831Z,85.40
2019-04-30T23:44:39.978Z,85.80
2019-04-30T23:47:09.983Z,85.50
2019-04-30T23:49:40.071Z,85.60
2019-04-30T23:52:11.227Z,86.20
2019-04-30T23:54:41.444Z,87.40
2019-04-30T23:57:11.592Z,86.60
2019-04-30T23:59:41.750Z,86.30
